sensor_id;sensor_type;location;lat;lon;timestamp;P1;durP1;ratioP1;P2;durP2;ratioP2
74900;SDS011;63461;51.416;6.758;2023-02-04T00:00:02;31.90;;;5.00;;
74900;SDS011;63461;51.416;6.758;2023-02-04T00:02:31;25.50;;;4.13;;
74900;SDS011;63461;51.416;6.758;2023-02-04T00:04:57;23.73;;;3.73;;
74900;SDS011;63461;51.416;6.758;2023-02-04T00:07:23;33.23;;;4.40;;
74900;SDS011;63461;51.416;6.758;2023-02-04T00:09:49;26.53;;;3.17;;
74900;SDS011;63461;51.416;6.758;2023-02-04T00:12:15;26.03;;;3.70;;
74900;SDS011;63461;51.416;6.758;2023-02-04T00:14:41;29.17;;;4.10;;
74900;SDS011;63461;51.416;6.758;2023-02-04T00:17:07;27.77;;;4.43;;
74900;SDS011;63461;51.416;6.758;2023-02-04T00:19:35;26.50;;;3.73;;
74900;SDS011;63461;51.416;6.758;2023-02-04T00:22:02;21.03;;;3.60;;
74900;SDS011;63461;51.416;6.758;2023-02-04T00:24:28;28.60;;;5.10;;
74900;SDS011;63461;51.416;6.758;2023-02-04T00:26:55;29.03;;;4.50;;
74900;SDS011;63461;51.416;6.758;2023-02-04T00:29:21;21.53;;;4.43;;
74900;SDS011;63461;51.416;6.758;2023-02-04T00:31:47;27.10;;;4.20;;
74900;SDS011;63461;51.416;6.758;2023-02-04T00:34:12;24.20;;;5.27;;
74900;SDS011;63461;51.416;6.758;2023-02-04T00:36:38;24.73;;;4.47;;
74900;SDS011;63461;51.416;6.758;2023-02-04T00:39:04;31.97;;;3.97;;
74900;SDS011;63461;51.416;6.758;2023-02-04T00:41:31;23.57;;;3.83;;
74900;SDS011;63461;51.416;6.758;2023-02-04T00:43:57;25.03;;;4.17;;
74900;SDS011;63461;51.416;6.758;2023-02-04T00:46:22;22.67;;;3.70;;
74900;SDS011;63461;51.416;6.758;2023-02-04T00:48:48;28.83;;;4.43;;
74900;SDS011;63461;51.416;6.758;2023-02-04T00:51:15;34.63;;;7.00;;
74900;SDS011;63461;51.416;6.758;2023-02-04T00:53:40;37.00;;;7.80;;
74900;SDS011;63461;51.416;6.758;2023-02-04T00:56:06;49.20;;;11.33;;
74900;SDS011;63461;51.416;6.758;2023-02-04T00:58:32;62.40;;;12.87;;
74900;SDS011;63461;51.416;6.758;2023-02-04T01:00:58;43.47;;;9.80;;
74900;SDS011;63461;51.416;6.758;2023-02-04T01:03:24;51.73;;;9.57;;
74900;SDS011;63461;51.416;6.758;2023-02-04T01:05:49;35.83;;;5.63;;
74900;SDS011;63461;51.416;6.758;2023-02-04T01:08:15;32.10;;;4.27;;
74900;SDS011;63461;51.416;6.758;2023-02-04T01:10:41;26.47;;;3.87;;
74900;SDS011;63461;51.416;6.758;2023-02-04T01:13:07;25.90;;;4.13;;
74900;SDS011;63461;51.416;6.758;2023-02-04T01:15:33;18.60;;;3.60;;
74900;SDS011;63461;51.416;6.758;2023-02-04T01:17:59;30.10;;;4.70;;
74900;SDS011;63461;51.416;6.758;2023-02-04T01:20:25;21.03;;;3.60;;
74900;SDS011;63461;51.416;6.758;2023-02-04T01:22:51;24.13;;;3.63;;
74900;SDS011;63461;51.416;6.758;2023-02-04T01:25:18;29.47;;;4.13;;
74900;SDS011;63461;51.416;6.758;2023-02-04T01:27:44;28.47;;;4.00;;
74900;SDS011;63461;51.416;6.758;2023-02-04T01:30:10;24.43;;;4.80;;
74900;SDS011;63461;51.416;6.758;2023-02-04T01:32:38;20.20;;;3.40;;
74900;SDS011;63461;51.416;6.758;2023-02-04T01:35:04;27.30;;;4.40;;
74900;SDS011;63461;51.416;6.758;2023-02-04T01:37:31;28.30;;;4.53;;
74900;SDS011;63461;51.416;6.758;2023-02-04T01:39:57;34.97;;;4.57;;
74900;SDS011;63461;51.416;6.758;2023-02-04T01:42:22;29.87;;;5.33;;
74900;SDS011;63461;51.416;6.758;2023-02-04T01:44:48;28.67;;;4.63;;
74900;SDS011;63461;51.416;6.758;2023-02-04T01:47:15;32.90;;;4.50;;
74900;SDS011;63461;51.416;6.758;2023-02-04T01:49:40;25.93;;;3.83;;
74900;SDS011;63461;51.416;6.758;2023-02-04T01:52:07;24.73;;;3.97;;
74900;SDS011;63461;51.416;6.758;2023-02-04T01:54:34;32.13;;;4.10;;
74900;SDS011;63461;51.416;6.758;2023-02-04T01:57:00;26.27;;;4.43;;
74900;SDS011;63461;51.416;6.758;2023-02-04T01:59:27;22.43;;;3.80;;
74900;SDS011;63461;51.416;6.758;2023-02-04T02:01:53;26.17;;;3.63;;
74900;SDS011;63461;51.416;6.758;2023-02-04T02:04:21;24.27;;;3.83;;
74900;SDS011;63461;51.416;6.758;2023-02-04T02:07:01;28.27;;;4.07;;
74900;SDS011;63461;51.416;6.758;2023-02-04T02:09:28;21.53;;;4.13;;
74900;SDS011;63461;51.416;6.758;2023-02-04T02:11:56;26.60;;;4.50;;
74900;SDS011;63461;51.416;6.758;2023-02-04T02:14:24;34.83;;;5.27;;
74900;SDS011;63461;51.416;6.758;2023-02-04T02:16:50;22.70;;;4.00;;
74900;SDS011;63461;51.416;6.758;2023-02-04T02:19:17;21.60;;;3.90;;
74900;SDS011;63461;51.416;6.758;2023-02-04T02:24:42;28.90;;;4.00;;
74900;SDS011;63461;51.416;6.758;2023-02-04T02:27:08;30.43;;;4.30;;
74900;SDS011;63461;51.416;6.758;2023-02-04T02:29:36;28.43;;;4.33;;
74900;SDS011;63461;51.416;6.758;2023-02-04T02:32:04;27.97;;;4.47;;
74900;SDS011;63461;51.416;6.758;2023-02-04T02:34:31;24.77;;;4.03;;
74900;SDS011;63461;51.416;6.758;2023-02-04T02:36:57;26.57;;;4.83;;
74900;SDS011;63461;51.416;6.758;2023-02-04T02:39:24;22.50;;;4.43;;
74900;SDS011;63461;51.416;6.758;2023-02-04T02:41:51;28.73;;;4.43;;
74900;SDS011;63461;51.416;6.758;2023-02-04T02:44:17;29.20;;;6.47;;
74900;SDS011;63461;51.416;6.758;2023-02-04T02:46:43;40.33;;;6.67;;
74900;SDS011;63461;51.416;6.758;2023-02-04T02:49:12;24.13;;;5.93;;
74900;SDS011;63461;51.416;6.758;2023-02-04T02:51:40;32.30;;;5.20;;
74900;SDS011;63461;51.416;6.758;2023-02-04T02:54:09;31.67;;;5.87;;
74900;SDS011;63461;51.416;6.758;2023-02-04T02:56:53;27.30;;;5.40;;
74900;SDS011;63461;51.416;6.758;2023-02-04T02:59:21;23.07;;;5.67;;
74900;SDS011;63461;51.416;6.758;2023-02-04T03:01:49;36.20;;;5.43;;
74900;SDS011;63461;51.416;6.758;2023-02-04T03:04:18;31.37;;;5.83;;
74900;SDS011;63461;51.416;6.758;2023-02-04T03:06:45;41.10;;;6.60;;
74900;SDS011;63461;51.416;6.758;2023-02-04T03:09:11;34.53;;;5.83;;
74900;SDS011;63461;51.416;6.758;2023-02-04T03:11:37;29.80;;;5.17;;
74900;SDS011;63461;51.416;6.758;2023-02-04T03:14:03;26.67;;;5.10;;
74900;SDS011;63461;51.416;6.758;2023-02-04T03:16:30;31.07;;;5.40;;
74900;SDS011;63461;51.416;6.758;2023-02-04T03:18:58;30.60;;;5.00;;
74900;SDS011;63461;51.416;6.758;2023-02-04T03:21:25;35.10;;;4.43;;
74900;SDS011;63461;51.416;6.758;2023-02-04T03:23:52;32.37;;;4.83;;
74900;SDS011;63461;51.416;6.758;2023-02-04T03:26:21;32.83;;;4.67;;
74900;SDS011;63461;51.416;6.758;2023-02-04T03:28:48;27.17;;;4.87;;
74900;SDS011;63461;51.416;6.758;2023-02-04T03:31:14;32.10;;;5.50;;
74900;SDS011;63461;51.416;6.758;2023-02-04T03:33:40;34.33;;;5.90;;
74900;SDS011;63461;51.416;6.758;2023-02-04T03:36:06;32.20;;;5.50;;
74900;SDS011;63461;51.416;6.758;2023-02-04T03:38:33;31.17;;;6.03;;
74900;SDS011;63461;51.416;6.758;2023-02-04T03:40:59;42.60;;;6.63;;
74900;SDS011;63461;51.416;6.758;2023-02-04T03:43:25;28.23;;;6.17;;
74900;SDS011;63461;51.416;6.758;2023-02-04T03:45:51;34.77;;;6.73;;
74900;SDS011;63461;51.416;6.758;2023-02-04T03:48:17;23.93;;;4.87;;
74900;SDS011;63461;51.416;6.758;2023-02-04T03:50:43;28.43;;;4.43;;
74900;SDS011;63461;51.416;6.758;2023-02-04T03:53:08;28.80;;;4.63;;
74900;SDS011;63461;51.416;6.758;2023-02-04T03:55:34;31.10;;;4.07;;
74900;SDS011;63461;51.416;6.758;2023-02-04T03:58:01;23.77;;;3.67;;
74900;SDS011;63461;51.416;6.758;2023-02-04T04:00:27;19.53;;;3.10;;
74900;SDS011;63461;51.416;6.758;2023-02-04T04:02:53;23.93;;;3.47;;
74900;SDS011;63461;51.416;6.758;2023-02-04T04:05:19;12.80;;;2.17;;
74900;SDS011;63461;51.416;6.758;2023-02-04T04:07:45;19.43;;;3.10;;
74900;SDS011;63461;51.416;6.758;2023-02-04T04:10:11;20.27;;;3.20;;
74900;SDS011;63461;51.416;6.758;2023-02-04T04:12:37;27.03;;;3.70;;
74900;SDS011;63461;51.416;6.758;2023-02-04T04:15:03;20.03;;;3.30;;
74900;SDS011;63461;51.416;6.758;2023-02-04T04:17:29;24.73;;;2.97;;
74900;SDS011;63461;51.416;6.758;2023-02-04T04:19:55;21.17;;;3.00;;
74900;SDS011;63461;51.416;6.758;2023-02-04T04:22:20;25.77;;;3.20;;
74900;SDS011;63461;51.416;6.758;2023-02-04T04:24:46;18.93;;;3.50;;
74900;SDS011;63461;51.416;6.758;2023-02-04T04:27:12;21.90;;;3.23;;
74900;SDS011;63461;51.416;6.758;2023-02-04T04:29:38;20.43;;;3.40;;
74900;SDS011;63461;51.416;6.758;2023-02-04T04:32:04;26.50;;;3.73;;
74900;SDS011;63461;51.416;6.758;2023-02-04T04:34:30;14.77;;;2.73;;
74900;SDS011;63461;51.416;6.758;2023-02-04T04:36:56;20.47;;;3.00;;
74900;SDS011;63461;51.416;6.758;2023-02-04T04:39:21;25.63;;;3.30;;
74900;SDS011;63461;51.416;6.758;2023-02-04T04:41:47;30.03;;;3.90;;
74900;SDS011;63461;51.416;6.758;2023-02-04T04:44:13;23.50;;;3.30;;
74900;SDS011;63461;51.416;6.758;2023-02-04T04:46:38;21.47;;;3.30;;
74900;SDS011;63461;51.416;6.758;2023-02-04T04:49:05;25.97;;;3.37;;
74900;SDS011;63461;51.416;6.758;2023-02-04T04:51:31;19.50;;;3.87;;
74900;SDS011;63461;51.416;6.758;2023-02-04T04:53:57;22.67;;;3.70;;
74900;SDS011;63461;51.416;6.758;2023-02-04T04:56:23;23.70;;;3.53;;
74900;SDS011;63461;51.416;6.758;2023-02-04T04:58:49;23.00;;;3.60;;
74900;SDS011;63461;51.416;6.758;2023-02-04T05:01:14;24.13;;;3.50;;
74900;SDS011;63461;51.416;6.758;2023-02-04T05:03:40;17.87;;;3.53;;
74900;SDS011;63461;51.416;6.758;2023-02-04T05:06:06;26.80;;;3.57;;
74900;SDS011;63461;51.416;6.758;2023-02-04T05:08:33;25.30;;;3.87;;
74900;SDS011;63461;51.416;6.758;2023-02-04T05:11:00;22.20;;;3.60;;
74900;SDS011;63461;51.416;6.758;2023-02-04T05:13:27;16.13;;;3.30;;
74900;SDS011;63461;51.416;6.758;2023-02-04T05:15:53;20.30;;;3.13;;
74900;SDS011;63461;51.416;6.758;2023-02-04T05:18:18;24.70;;;3.50;;
74900;SDS011;63461;51.416;6.758;2023-02-04T05:20:44;21.57;;;3.67;;
74900;SDS011;63461;51.416;6.758;2023-02-04T05:23:10;25.00;;;4.47;;
74900;SDS011;63461;51.416;6.758;2023-02-04T05:25:36;20.63;;;3.73;;
74900;SDS011;63461;51.416;6.758;2023-02-04T05:28:02;25.53;;;4.20;;
74900;SDS011;63461;51.416;6.758;2023-02-04T05:30:28;29.60;;;4.60;;
74900;SDS011;63461;51.416;6.758;2023-02-04T05:32:54;23.97;;;4.03;;
74900;SDS011;63461;51.416;6.758;2023-02-04T05:35:20;18.87;;;4.40;;
74900;SDS011;63461;51.416;6.758;2023-02-04T05:37:45;26.10;;;3.80;;
74900;SDS011;63461;51.416;6.758;2023-02-04T05:40:11;27.70;;;4.90;;
74900;SDS011;63461;51.416;6.758;2023-02-04T05:42:37;20.77;;;3.97;;
74900;SDS011;63461;51.416;6.758;2023-02-04T05:45:03;25.80;;;4.37;;
74900;SDS011;63461;51.416;6.758;2023-02-04T05:47:29;23.53;;;3.63;;
74900;SDS011;63461;51.416;6.758;2023-02-04T05:49:54;21.60;;;3.63;;
74900;SDS011;63461;51.416;6.758;2023-02-04T05:52:20;21.47;;;4.10;;
74900;SDS011;63461;51.416;6.758;2023-02-04T05:54:46;23.77;;;4.17;;
74900;SDS011;63461;51.416;6.758;2023-02-04T05:57:12;22.17;;;3.80;;
74900;SDS011;63461;51.416;6.758;2023-02-04T05:59:38;21.17;;;4.47;;
74900;SDS011;63461;51.416;6.758;2023-02-04T06:02:04;33.87;;;4.77;;
74900;SDS011;63461;51.416;6.758;2023-02-04T06:04:30;24.50;;;5.00;;
74900;SDS011;63461;51.416;6.758;2023-02-04T06:06:55;22.23;;;4.17;;
74900;SDS011;63461;51.416;6.758;2023-02-04T06:09:21;28.07;;;4.03;;
74900;SDS011;63461;51.416;6.758;2023-02-04T06:11:47;24.07;;;4.03;;
74900;SDS011;63461;51.416;6.758;2023-02-04T06:14:12;20.93;;;4.17;;
74900;SDS011;63461;51.416;6.758;2023-02-04T06:16:38;24.97;;;3.80;;
74900;SDS011;63461;51.416;6.758;2023-02-04T06:19:04;30.83;;;4.43;;
74900;SDS011;63461;51.416;6.758;2023-02-04T06:21:29;18.90;;;3.73;;
74900;SDS011;63461;51.416;6.758;2023-02-04T06:23:55;28.33;;;4.40;;
74900;SDS011;63461;51.416;6.758;2023-02-04T06:26:21;21.73;;;4.37;;
74900;SDS011;63461;51.416;6.758;2023-02-04T06:28:47;24.07;;;4.63;;
74900;SDS011;63461;51.416;6.758;2023-02-04T06:31:12;23.47;;;4.13;;
74900;SDS011;63461;51.416;6.758;2023-02-04T06:33:38;35.80;;;4.87;;
74900;SDS011;63461;51.416;6.758;2023-02-04T06:36:04;24.03;;;3.67;;
74900;SDS011;63461;51.416;6.758;2023-02-04T06:38:30;29.63;;;4.50;;
74900;SDS011;63461;51.416;6.758;2023-02-04T06:40:56;28.77;;;4.60;;
74900;SDS011;63461;51.416;6.758;2023-02-04T06:43:21;22.27;;;4.07;;
74900;SDS011;63461;51.416;6.758;2023-02-04T06:45:50;23.67;;;4.03;;
74900;SDS011;63461;51.416;6.758;2023-02-04T06:48:16;24.13;;;4.83;;
74900;SDS011;63461;51.416;6.758;2023-02-04T06:50:42;28.80;;;3.97;;
74900;SDS011;63461;51.416;6.758;2023-02-04T06:53:08;41.33;;;5.07;;
74900;SDS011;63461;51.416;6.758;2023-02-04T06:55:33;34.17;;;4.57;;
74900;SDS011;63461;51.416;6.758;2023-02-04T06:57:59;28.67;;;3.87;;
74900;SDS011;63461;51.416;6.758;2023-02-04T07:00:25;31.77;;;4.40;;
74900;SDS011;63461;51.416;6.758;2023-02-04T07:02:51;24.20;;;3.77;;
74900;SDS011;63461;51.416;6.758;2023-02-04T07:05:17;29.63;;;4.17;;
74900;SDS011;63461;51.416;6.758;2023-02-04T07:07:43;23.53;;;4.27;;
74900;SDS011;63461;51.416;6.758;2023-02-04T07:10:08;26.47;;;4.37;;
74900;SDS011;63461;51.416;6.758;2023-02-04T07:12:34;28.50;;;4.43;;
74900;SDS011;63461;51.416;6.758;2023-02-04T07:15:00;35.63;;;4.83;;
74900;SDS011;63461;51.416;6.758;2023-02-04T07:17:26;22.43;;;4.87;;
74900;SDS011;63461;51.416;6.758;2023-02-04T07:19:51;28.13;;;4.20;;
74900;SDS011;63461;51.416;6.758;2023-02-04T07:22:17;26.97;;;3.90;;
74900;SDS011;63461;51.416;6.758;2023-02-04T07:24:43;27.40;;;4.27;;
74900;SDS011;63461;51.416;6.758;2023-02-04T07:27:09;26.27;;;4.10;;
74900;SDS011;63461;51.416;6.758;2023-02-04T07:29:35;24.70;;;4.57;;
74900;SDS011;63461;51.416;6.758;2023-02-04T07:32:00;23.03;;;4.20;;
74900;SDS011;63461;51.416;6.758;2023-02-04T07:34:26;27.60;;;4.17;;
74900;SDS011;63461;51.416;6.758;2023-02-04T07:36:52;30.23;;;4.90;;
74900;SDS011;63461;51.416;6.758;2023-02-04T07:39:18;28.83;;;4.77;;
74900;SDS011;63461;51.416;6.758;2023-02-04T07:41:43;33.67;;;4.87;;
74900;SDS011;63461;51.416;6.758;2023-02-04T07:44:11;32.60;;;3.93;;
74900;SDS011;63461;51.416;6.758;2023-02-04T07:46:37;27.33;;;4.07;;
74900;SDS011;63461;51.416;6.758;2023-02-04T07:49:02;31.20;;;4.67;;
74900;SDS011;63461;51.416;6.758;2023-02-04T07:51:28;30.13;;;4.47;;
74900;SDS011;63461;51.416;6.758;2023-02-04T07:53:55;36.07;;;6.20;;
74900;SDS011;63461;51.416;6.758;2023-02-04T07:56:20;36.97;;;4.53;;
74900;SDS011;63461;51.416;6.758;2023-02-04T07:58:46;23.50;;;4.40;;
74900;SDS011;63461;51.416;6.758;2023-02-04T08:01:13;31.17;;;5.00;;
74900;SDS011;63461;51.416;6.758;2023-02-04T08:03:39;29.53;;;5.20;;
74900;SDS011;63461;51.416;6.758;2023-02-04T08:06:04;35.43;;;5.33;;
74900;SDS011;63461;51.416;6.758;2023-02-04T08:08:30;25.03;;;4.87;;
74900;SDS011;63461;51.416;6.758;2023-02-04T08:10:56;27.73;;;4.33;;
74900;SDS011;63461;51.416;6.758;2023-02-04T08:13:22;28.97;;;5.27;;
74900;SDS011;63461;51.416;6.758;2023-02-04T08:15:49;31.00;;;5.53;;
74900;SDS011;63461;51.416;6.758;2023-02-04T08:18:15;22.60;;;4.63;;
74900;SDS011;63461;51.416;6.758;2023-02-04T08:20:41;31.73;;;5.77;;
74900;SDS011;63461;51.416;6.758;2023-02-04T08:23:07;25.77;;;5.10;;
74900;SDS011;63461;51.416;6.758;2023-02-04T08:25:33;32.17;;;5.33;;
74900;SDS011;63461;51.416;6.758;2023-02-04T08:27:59;23.23;;;4.93;;
74900;SDS011;63461;51.416;6.758;2023-02-04T08:30:25;35.17;;;6.03;;
74900;SDS011;63461;51.416;6.758;2023-02-04T08:32:51;26.83;;;5.50;;
74900;SDS011;63461;51.416;6.758;2023-02-04T08:35:17;18.63;;;4.70;;
74900;SDS011;63461;51.416;6.758;2023-02-04T08:37:43;29.50;;;5.77;;
74900;SDS011;63461;51.416;6.758;2023-02-04T08:40:09;28.37;;;6.30;;
74900;SDS011;63461;51.416;6.758;2023-02-04T08:42:35;28.77;;;4.30;;
74900;SDS011;63461;51.416;6.758;2023-02-04T08:45:01;24.10;;;5.40;;
74900;SDS011;63461;51.416;6.758;2023-02-04T08:47:28;32.33;;;5.40;;
74900;SDS011;63461;51.416;6.758;2023-02-04T08:49:54;25.93;;;5.23;;
74900;SDS011;63461;51.416;6.758;2023-02-04T08:52:19;26.43;;;4.60;;
74900;SDS011;63461;51.416;6.758;2023-02-04T08:54:45;30.47;;;5.30;;
74900;SDS011;63461;51.416;6.758;2023-02-04T08:57:11;25.83;;;5.60;;
74900;SDS011;63461;51.416;6.758;2023-02-04T08:59:37;31.43;;;5.33;;
74900;SDS011;63461;51.416;6.758;2023-02-04T09:02:02;33.77;;;5.03;;
74900;SDS011;63461;51.416;6.758;2023-02-04T09:04:28;35.93;;;5.80;;
74900;SDS011;63461;51.416;6.758;2023-02-04T09:06:54;29.43;;;4.67;;
74900;SDS011;63461;51.416;6.758;2023-02-04T09:09:20;34.43;;;5.40;;
74900;SDS011;63461;51.416;6.758;2023-02-04T09:11:45;35.07;;;6.20;;
74900;SDS011;63461;51.416;6.758;2023-02-04T09:14:11;28.60;;;5.07;;
74900;SDS011;63461;51.416;6.758;2023-02-04T09:16:38;36.03;;;5.60;;
74900;SDS011;63461;51.416;6.758;2023-02-04T09:19:03;30.80;;;5.83;;
74900;SDS011;63461;51.416;6.758;2023-02-04T09:21:30;28.13;;;5.77;;
74900;SDS011;63461;51.416;6.758;2023-02-04T09:23:56;29.40;;;6.23;;
74900;SDS011;63461;51.416;6.758;2023-02-04T09:26:22;39.17;;;5.87;;
74900;SDS011;63461;51.416;6.758;2023-02-04T09:28:48;33.17;;;6.17;;
74900;SDS011;63461;51.416;6.758;2023-02-04T09:31:14;44.77;;;7.10;;
74900;SDS011;63461;51.416;6.758;2023-02-04T09:33:40;30.83;;;6.33;;
74900;SDS011;63461;51.416;6.758;2023-02-04T09:36:06;38.83;;;7.60;;
74900;SDS011;63461;51.416;6.758;2023-02-04T09:38:32;44.07;;;6.80;;
74900;SDS011;63461;51.416;6.758;2023-02-04T09:41:07;38.07;;;7.70;;
74900;SDS011;63461;51.416;6.758;2023-02-04T09:43:37;31.80;;;7.33;;
74900;SDS011;63461;51.416;6.758;2023-02-04T09:46:07;45.27;;;7.80;;
74900;SDS011;63461;51.416;6.758;2023-02-04T09:48:40;37.17;;;7.30;;
74900;SDS011;63461;51.416;6.758;2023-02-04T09:51:06;37.10;;;7.60;;
74900;SDS011;63461;51.416;6.758;2023-02-04T09:53:32;32.97;;;7.60;;
74900;SDS011;63461;51.416;6.758;2023-02-04T09:56:00;41.20;;;8.30;;
74900;SDS011;63461;51.416;6.758;2023-02-04T09:58:28;41.03;;;7.83;;
74900;SDS011;63461;51.416;6.758;2023-02-04T10:03:52;40.73;;;7.93;;
74900;SDS011;63461;51.416;6.758;2023-02-04T10:06:22;50.00;;;11.30;;
74900;SDS011;63461;51.416;6.758;2023-02-04T10:08:48;44.63;;;9.27;;
74900;SDS011;63461;51.416;6.758;2023-02-04T10:11:16;39.60;;;8.87;;
74900;SDS011;63461;51.416;6.758;2023-02-04T10:13:45;45.13;;;8.80;;
74900;SDS011;63461;51.416;6.758;2023-02-04T10:16:33;37.40;;;6.90;;
74900;SDS011;63461;51.416;6.758;2023-02-04T10:19:04;36.33;;;6.93;;
74900;SDS011;63461;51.416;6.758;2023-02-04T10:21:32;41.50;;;7.73;;
74900;SDS011;63461;51.416;6.758;2023-02-04T10:24:02;34.60;;;7.17;;
74900;SDS011;63461;51.416;6.758;2023-02-04T10:26:30;39.30;;;7.00;;
74900;SDS011;63461;51.416;6.758;2023-02-04T10:29:00;37.73;;;7.00;;
74900;SDS011;63461;51.416;6.758;2023-02-04T10:31:35;38.80;;;6.73;;
74900;SDS011;63461;51.416;6.758;2023-02-04T10:34:06;37.23;;;6.80;;
74900;SDS011;63461;51.416;6.758;2023-02-04T10:36:44;32.30;;;7.27;;
74900;SDS011;63461;51.416;6.758;2023-02-04T10:39:22;37.43;;;8.30;;
74900;SDS011;63461;51.416;6.758;2023-02-04T10:41:53;36.77;;;9.67;;
74900;SDS011;63461;51.416;6.758;2023-02-04T10:46:57;37.87;;;8.07;;
74900;SDS011;63461;51.416;6.758;2023-02-04T10:49:24;36.10;;;9.70;;
74900;SDS011;63461;51.416;6.758;2023-02-04T10:51:50;36.67;;;8.67;;
74900;SDS011;63461;51.416;6.758;2023-02-04T10:54:18;36.27;;;8.07;;
74900;SDS011;63461;51.416;6.758;2023-02-04T10:59:44;44.83;;;8.17;;
74900;SDS011;63461;51.416;6.758;2023-02-04T11:04:55;39.33;;;10.63;;
74900;SDS011;63461;51.416;6.758;2023-02-04T11:07:21;39.77;;;10.40;;
74900;SDS011;63461;51.416;6.758;2023-02-04T11:09:47;44.93;;;11.83;;
74900;SDS011;63461;51.416;6.758;2023-02-04T11:12:20;43.53;;;10.50;;
74900;SDS011;63461;51.416;6.758;2023-02-04T11:14:54;51.97;;;13.17;;
74900;SDS011;63461;51.416;6.758;2023-02-04T11:17:27;45.47;;;13.27;;
74900;SDS011;63461;51.416;6.758;2023-02-04T11:19:55;55.67;;;13.53;;
74900;SDS011;63461;51.416;6.758;2023-02-04T11:22:23;54.33;;;14.17;;
74900;SDS011;63461;51.416;6.758;2023-02-04T11:25:00;50.80;;;15.47;;
74900;SDS011;63461;51.416;6.758;2023-02-04T11:27:39;53.73;;;16.43;;
74900;SDS011;63461;51.416;6.758;2023-02-04T11:30:20;54.50;;;16.63;;
74900;SDS011;63461;51.416;6.758;2023-02-04T11:33:03;53.53;;;17.50;;
74900;SDS011;63461;51.416;6.758;2023-02-04T11:35:30;56.47;;;16.97;;
74900;SDS011;63461;51.416;6.758;2023-02-04T11:37:57;43.43;;;16.43;;
74900;SDS011;63461;51.416;6.758;2023-02-04T11:40:25;43.17;;;14.83;;
74900;SDS011;63461;51.416;6.758;2023-02-04T11:43:13;58.33;;;15.77;;
74900;SDS011;63461;51.416;6.758;2023-02-04T11:45:40;55.60;;;15.77;;
74900;SDS011;63461;51.416;6.758;2023-02-04T11:48:11;56.83;;;15.30;;
74900;SDS011;63461;51.416;6.758;2023-02-04T11:50:42;54.27;;;15.30;;
74900;SDS011;63461;51.416;6.758;2023-02-04T11:53:29;51.17;;;15.13;;
74900;SDS011;63461;51.416;6.758;2023-02-04T11:55:56;56.87;;;17.27;;
74900;SDS011;63461;51.416;6.758;2023-02-04T11:58:23;50.70;;;15.77;;
74900;SDS011;63461;51.416;6.758;2023-02-04T12:00:50;45.43;;;14.53;;
74900;SDS011;63461;51.416;6.758;2023-02-04T12:03:21;41.93;;;13.00;;
74900;SDS011;63461;51.416;6.758;2023-02-04T12:05:51;45.40;;;12.60;;
74900;SDS011;63461;51.416;6.758;2023-02-04T12:10:48;40.93;;;10.90;;
74900;SDS011;63461;51.416;6.758;2023-02-04T12:13:24;45.30;;;9.60;;
74900;SDS011;63461;51.416;6.758;2023-02-04T12:15:53;46.93;;;10.23;;
74900;SDS011;63461;51.416;6.758;2023-02-04T12:18:22;37.63;;;9.10;;
74900;SDS011;63461;51.416;6.758;2023-02-04T12:20:48;38.40;;;7.70;;
74900;SDS011;63461;51.416;6.758;2023-02-04T12:23:14;37.20;;;8.30;;
74900;SDS011;63461;51.416;6.758;2023-02-04T12:25:39;31.07;;;7.13;;
74900;SDS011;63461;51.416;6.758;2023-02-04T12:28:05;35.93;;;7.17;;
74900;SDS011;63461;51.416;6.758;2023-02-04T12:30:31;35.67;;;6.63;;
74900;SDS011;63461;51.416;6.758;2023-02-04T12:32:56;34.20;;;6.90;;
74900;SDS011;63461;51.416;6.758;2023-02-04T12:35:22;38.33;;;6.63;;
74900;SDS011;63461;51.416;6.758;2023-02-04T12:37:48;31.93;;;6.63;;
74900;SDS011;63461;51.416;6.758;2023-02-04T12:40:14;29.30;;;5.73;;
74900;SDS011;63461;51.416;6.758;2023-02-04T12:42:41;37.10;;;5.10;;
74900;SDS011;63461;51.416;6.758;2023-02-04T12:45:08;26.60;;;5.43;;
74900;SDS011;63461;51.416;6.758;2023-02-04T12:47:35;29.47;;;6.37;;
74900;SDS011;63461;51.416;6.758;2023-02-04T12:50:03;41.87;;;6.47;;
74900;SDS011;63461;51.416;6.758;2023-02-04T12:52:30;37.07;;;6.97;;
74900;SDS011;63461;51.416;6.758;2023-02-04T12:54:56;33.23;;;6.00;;
74900;SDS011;63461;51.416;6.758;2023-02-04T12:57:21;30.83;;;5.50;;
74900;SDS011;63461;51.416;6.758;2023-02-04T12:59:47;73.23;;;12.67;;
74900;SDS011;63461;51.416;6.758;2023-02-04T13:02:13;51.20;;;8.80;;
74900;SDS011;63461;51.416;6.758;2023-02-04T13:04:39;52.03;;;9.60;;
74900;SDS011;63461;51.416;6.758;2023-02-04T13:07:06;37.80;;;6.73;;
74900;SDS011;63461;51.416;6.758;2023-02-04T13:09:33;45.53;;;9.67;;
74900;SDS011;63461;51.416;6.758;2023-02-04T13:11:59;63.93;;;13.03;;
74900;SDS011;63461;51.416;6.758;2023-02-04T13:14:25;63.03;;;14.23;;
74900;SDS011;63461;51.416;6.758;2023-02-04T13:16:51;70.53;;;17.70;;
74900;SDS011;63461;51.416;6.758;2023-02-04T13:19:17;55.30;;;12.77;;
74900;SDS011;63461;51.416;6.758;2023-02-04T13:21:42;43.70;;;8.63;;
74900;SDS011;63461;51.416;6.758;2023-02-04T13:24:08;31.10;;;7.53;;
74900;SDS011;63461;51.416;6.758;2023-02-04T13:26:34;41.93;;;7.20;;
74900;SDS011;63461;51.416;6.758;2023-02-04T13:29:00;38.53;;;9.17;;
74900;SDS011;63461;51.416;6.758;2023-02-04T13:31:26;37.30;;;8.13;;
74900;SDS011;63461;51.416;6.758;2023-02-04T13:33:51;26.93;;;5.30;;
74900;SDS011;63461;51.416;6.758;2023-02-04T13:36:17;33.67;;;5.77;;
74900;SDS011;63461;51.416;6.758;2023-02-04T13:38:43;32.97;;;5.83;;
74900;SDS011;63461;51.416;6.758;2023-02-04T13:41:09;39.57;;;5.33;;
74900;SDS011;63461;51.416;6.758;2023-02-04T13:43:34;31.67;;;6.30;;
74900;SDS011;63461;51.416;6.758;2023-02-04T13:46:00;31.60;;;6.33;;
74900;SDS011;63461;51.416;6.758;2023-02-04T13:48:28;29.27;;;7.50;;
74900;SDS011;63461;51.416;6.758;2023-02-04T13:50:54;36.83;;;10.07;;
74900;SDS011;63461;51.416;6.758;2023-02-04T13:53:19;24.33;;;4.70;;
74900;SDS011;63461;51.416;6.758;2023-02-04T13:55:45;23.57;;;5.00;;
74900;SDS011;63461;51.416;6.758;2023-02-04T13:58:11;25.30;;;4.53;;
74900;SDS011;63461;51.416;6.758;2023-02-04T14:00:37;22.67;;;4.60;;
74900;SDS011;63461;51.416;6.758;2023-02-04T14:03:03;27.40;;;6.27;;
74900;SDS011;63461;51.416;6.758;2023-02-04T14:05:29;30.27;;;4.70;;
74900;SDS011;63461;51.416;6.758;2023-02-04T14:07:54;29.53;;;5.03;;
74900;SDS011;63461;51.416;6.758;2023-02-04T14:10:20;23.57;;;5.13;;
74900;SDS011;63461;51.416;6.758;2023-02-04T14:12:49;29.33;;;5.73;;
74900;SDS011;63461;51.416;6.758;2023-02-04T14:15:16;27.83;;;5.83;;
74900;SDS011;63461;51.416;6.758;2023-02-04T14:17:42;28.80;;;5.13;;
74900;SDS011;63461;51.416;6.758;2023-02-04T14:20:08;30.20;;;4.40;;
74900;SDS011;63461;51.416;6.758;2023-02-04T14:22:34;36.40;;;4.33;;
74900;SDS011;63461;51.416;6.758;2023-02-04T14:25:00;26.30;;;4.20;;
74900;SDS011;63461;51.416;6.758;2023-02-04T14:27:25;32.13;;;4.67;;
74900;SDS011;63461;51.416;6.758;2023-02-04T14:29:51;27.00;;;4.67;;
74900;SDS011;63461;51.416;6.758;2023-02-04T14:32:17;35.50;;;5.00;;
74900;SDS011;63461;51.416;6.758;2023-02-04T14:34:45;31.40;;;4.33;;
74900;SDS011;63461;51.416;6.758;2023-02-04T14:37:11;35.50;;;5.33;;
74900;SDS011;63461;51.416;6.758;2023-02-04T14:39:37;34.43;;;6.70;;
74900;SDS011;63461;51.416;6.758;2023-02-04T14:42:02;35.17;;;6.83;;
74900;SDS011;63461;51.416;6.758;2023-02-04T14:44:29;44.63;;;7.67;;
74900;SDS011;63461;51.416;6.758;2023-02-04T14:46:56;36.83;;;8.00;;